Time;durP1;ratioP1;P1;durP2;ratioP2;P2;SDS_P1;SDS_P2;PMS_P1;PMS_P2;Temp;Humidity;BMP_temperature;BMP_pressure;BME280_temperature;BME280_humidity;BME280_pressure;Samples;Min_cycle;Max_cycle;Signal;HPM_P1;HPM_P2
2023/04/12 00:01:30;;;;;;;;;;;;;;;12.41;52.92;98661.47;4994385;28;19921;-86
2023/04/12 00:03:56;;;;;;;;;;;;;;;12.42;52.82;98655.25;4993680;28;20291;-86
2023/04/12 00:06:26;;;;;;;;;;;;;;;12.36;52.94;98663.44;4994389;28;20288;-86
2023/04/12 00:08:52;;;;;;;;;;;;;;;12.55;52.99;98655.63;4993999;28;20015;-86
2023/04/12 00:11:17;;;;;;;;;;;;;;;12.42;52.94;98651.72;4993684;28;20000;-85
2023/04/12 00:13:42;;;;;;;;;;;;;;;12.23;53.41;98656.88;4993596;28;19928;-86
2023/04/12 00:16:08;;;;;;;;;;;;;;;12.17;53.36;98656.22;4994417;28;19918;-86
2023/04/12 00:18:33;;;;;;;;;;;;;;;12.22;53.27;98655.16;4993555;28;20307;-86
2023/04/12 00:20:59;;;;;;;;;;;;;;;12.21;53.14;98645.50;4994012;28;19997;-87
2023/04/12 00:23:24;;;;;;;;;;;;;;;12.03;53.67;98640.00;4993206;28;19921;-87
2023/04/12 00:25:50;;;;;;;;;;;;;;;12.06;54.08;98639.03;4976412;28;19988;-86
2023/04/12 00:28:15;;;;;;;;;;;;;;;12.05;53.81;98632.00;4993989;28;19914;-86
2023/04/12 00:30:41;;;;;;;;;;;;;;;12.08;53.86;98626.59;4993977;28;19910;-87
2023/04/12 00:33:06;;;;;;;;;;;;;;;12.12;53.01;98634.34;4992000;28;19917;-84
2023/04/12 00:35:32;;;;;;;;;;;;;;;12.21;52.74;98627.00;4993529;28;19909;-86
2023/04/12 00:37:57;;;;;;;;;;;;;;;12.18;52.66;98620.91;4993711;28;20375;-87
2023/04/12 00:40:22;;;;;;;;;;;;;;;12.20;52.97;98630.56;4993446;28;19937;-86
2023/04/12 00:42:48;;;;;;;;;;;;;;;12.20;52.69;98630.56;4992113;28;19937;-86
2023/04/12 00:45:13;;;;;;;;;;;;;;;12.08;53.19;98624.84;4992547;28;19922;-87
2023/04/12 00:47:41;;;;;;;;;;;;;;;12.02;53.00;98627.72;4993496;28;19913;-86
2023/04/12 00:50:07;;;;;;;;;;;;;;;12.09;52.83;98629.19;4993243;28;20280;-85
2023/04/12 00:52:34;;;;;;;;;;;;;;;12.14;53.59;98626.34;4993595;28;19914;-87
2023/04/12 00:55:02;;;;;;;;;;;;;;;12.09;53.13;98617.75;4993194;28;19918;-85
2023/04/12 00:57:32;;;;;;;;;;;;;;;12.14;52.90;98621.97;4975304;28;19979;-86
2023/04/12 00:59:57;;;;;;;;;;;;;;;11.88;54.05;98617.63;4993566;28;19921;-85
2023/04/12 01:02:23;;;;;;;;;;;;;;;11.92;53.99;98611.31;4992866;28;19918;-87
2023/04/12 01:04:50;;;;;;;;;;;;;;;12.06;53.62;98615.22;4992160;28;20000;-86
2023/04/12 01:07:21;;;;;;;;;;;;;;;11.92;53.53;98619.25;4993106;28;20388;-85
2023/04/12 01:10:25;;;;;;;;;;;;;;;12.05;53.67;98616.13;4974068;28;19965;-88
2023/04/12 01:13:16;;;;;;;;;;;;;;;11.98;53.70;98605.81;4971650;28;19922;-83
2023/04/12 01:15:48;;;;;;;;;;;;;;;11.96;53.88;98604.16;4968826;28;19914;-86
2023/04/12 01:18:18;;;;;;;;;;;;;;;11.99;53.61;98596.97;4951701;28;19929;-85
2023/04/12 01:20:52;;;;;;;;;;;;;;;11.83;54.41;98587.84;4952206;28;20300;-87
2023/04/12 01:23:21;;;;;;;;;;;;;;;11.78;54.52;98590.66;4970549;28;19914;-86
2023/04/12 01:26:05;;;;;;;;;;;;;;;11.74;54.46;98589.09;4971102;28;19917;-88
2023/04/12 01:28:33;;;;;;;;;;;;;;;11.75;54.56;98587.28;4971320;28;20130;-84
2023/04/12 01:31:03;;;;;;;;;;;;;;;11.69;54.62;98585.72;4971103;28;19914;-86
2023/04/12 01:33:30;;;;;;;;;;;;;;;11.79;54.81;98587.13;4953298;28;20391;-85
2023/04/12 01:35:57;;;;;;;;;;;;;;;11.95;54.54;98583.94;4951707;29;19925;-85
2023/04/12 01:38:23;;;;;;;;;;;;;;;11.97;54.57;98588.25;4952038;29;19937;-86
2023/04/12 01:40:49;;;;;;;;;;;;;;;12.04;54.90;98583.56;4962468;28;20009;-87
2023/04/12 01:43:15;;;;;;;;;;;;;;;12.02;54.46;98560.75;4959624;28;20112;-88
2023/04/12 01:45:40;;;;;;;;;;;;;;;12.15;54.23;98584.00;4992353;28;19919;-85
2023/04/12 01:48:09;;;;;;;;;;;;;;;12.14;53.82;98582.31;4992324;28;20466;-85
2023/04/12 01:50:35;;;;;;;;;;;;;;;12.17;54.33;98583.94;4992436;28;19976;-86
2023/04/12 01:53:02;;;;;;;;;;;;;;;12.15;54.03;98588.44;4991967;28;20391;-86
2023/04/12 01:55:29;;;;;;;;;;;;;;;12.12;54.11;98570.91;4992770;28;19924;-88
2023/04/12 01:57:55;;;;;;;;;;;;;;;12.13;53.93;98579.72;4992185;28;19920;-88
2023/04/12 02:00:21;;;;;;;;;;;;;;;12.28;54.03;98584.41;4992227;28;20364;-92
2023/04/12 02:02:47;;;;;;;;;;;;;;;12.32;53.34;98575.41;4991627;28;19968;-88
2023/04/12 02:05:12;;;;;;;;;;;;;;;12.14;53.77;98574.38;4992331;28;19953;-87
2023/04/12 02:07:38;;;;;;;;;;;;;;;12.20;54.02;98572.41;4991955;28;19917;-90
2023/04/12 02:10:04;;;;;;;;;;;;;;;12.17;53.73;98571.59;4992386;28;19918;-88
2023/04/12 02:12:29;;;;;;;;;;;;;;;12.17;53.64;98571.59;4973657;28;19918;-87
2023/04/12 02:14:56;;;;;;;;;;;;;;;12.22;53.64;98571.44;4984989;28;19914;-88
2023/04/12 02:17:21;;;;;;;;;;;;;;;12.15;53.37;98575.22;4991262;28;19918;-85
2023/04/12 02:19:47;;;;;;;;;;;;;;;12.16;53.61;98574.31;4991942;28;19920;-87
2023/04/12 02:22:12;;;;;;;;;;;;;;;12.10;53.32;98567.47;4991530;28;19956;-86
2023/04/12 02:24:37;;;;;;;;;;;;;;;11.97;54.10;98574.16;5006685;28;20373;-86
2023/04/12 02:27:03;;;;;;;;;;;;;;;12.04;53.46;98572.16;4991274;28;19921;-89
2023/04/12 02:29:28;;;;;;;;;;;;;;;12.05;53.44;98571.19;4991543;28;20010;-89
2023/04/12 02:31:53;;;;;;;;;;;;;;;12.09;53.68;98572.81;4989684;28;19918;-88
2023/04/12 02:34:20;;;;;;;;;;;;;;;12.12;53.46;98568.25;4991210;28;19949;-87
2023/04/12 02:36:48;;;;;;;;;;;;;;;12.03;53.57;98567.78;4990563;28;19922;-87
2023/04/12 02:39:17;;;;;;;;;;;;;;;12.04;53.47;98570.34;4991323;28;19913;-86
2023/04/12 02:41:42;;;;;;;;;;;;;;;12.05;53.87;98571.19;4991816;28;20000;-86
2023/04/12 02:44:08;;;;;;;;;;;;;;;12.07;54.26;98567.59;4989267;28;20028;-89
2023/04/12 02:46:33;;;;;;;;;;;;;;;11.96;54.38;98568.00;4991402;28;19914;-89
2023/04/12 02:48:58;;;;;;;;;;;;;;;12.23;54.20;98559.91;4990340;28;19917;-89
2023/04/12 02:51:24;;;;;;;;;;;;;;;12.13;54.10;98563.84;4991368;28;19914;-87
2023/04/12 02:53:50;;;;;;;;;;;;;;;12.04;54.99;98564.22;4991388;28;19952;-89
2023/04/12 02:56:17;;;;;;;;;;;;;;;12.07;54.66;98559.66;4990810;28;19945;-87
2023/04/12 02:58:43;;;;;;;;;;;;;;;11.91;55.05;98564.66;4990263;28;19918;-86
2023/04/12 03:01:11;;;;;;;;;;;;;;;11.77;56.03;98570.47;4991001;28;20255;-88
2023/04/12 03:03:37;;;;;;;;;;;;;;;11.70;55.85;98557.56;4988457;28;20310;-89
2023/04/12 03:06:03;;;;;;;;;;;;;;;11.62;55.62;98568.41;4991110;28;19914;-88
2023/04/12 03:08:28;;;;;;;;;;;;;;;11.76;55.38;98567.88;4990470;28;19921;-88
2023/04/12 03:10:54;;;;;;;;;;;;;;;11.83;55.06;98564.97;4990830;28;19914;-89
2023/04/12 03:13:19;;;;;;;;;;;;;;;11.88;55.10;98561.25;4989817;28;19917;-89
2023/04/12 03:15:46;;;;;;;;;;;;;;;11.98;54.59;98567.94;4989941;28;19921;-88
2023/04/12 03:18:11;;;;;;;;;;;;;;;11.76;54.74;98570.53;4990965;28;20012;-87
2023/04/12 03:20:42;;;;;;;;;;;;;;;11.93;54.30;98565.47;4988391;28;20440;-88
2023/04/12 03:23:07;;;;;;;;;;;;;;;11.95;54.45;98573.34;4970629;28;19914;-87
2023/04/12 03:25:33;;;;;;;;;;;;;;;12.06;53.98;98560.56;4990391;28;19976;-85
2023/04/12 03:27:58;;;;;;;;;;;;;;;12.07;54.24;98572.03;4990762;28;20323;-84
2023/04/12 03:30:23;;;;;;;;;;;;;;;12.02;53.89;98566.91;4990090;28;19977;-87
2023/04/12 03:32:49;;;;;;;;;;;;;;;12.00;53.84;98563.47;4988869;28;19922;-90
2023/04/12 03:35:14;;;;;;;;;;;;;;;11.93;54.20;98569.91;4973513;28;19922;-86
2023/04/12 03:37:40;;;;;;;;;;;;;;;12.06;53.96;98572.94;4990555;28;19948;-86
2023/04/12 03:40:06;;;;;;;;;;;;;;;11.99;53.92;98578.47;4973480;28;19948;-84
2023/04/12 03:42:31;;;;;;;;;;;;;;;12.04;54.26;98573.00;4987291;28;19918;-88
2023/04/12 03:44:56;;;;;;;;;;;;;;;11.99;53.86;98577.63;4989541;28;19918;-88
2023/04/12 03:47:22;;;;;;;;;;;;;;;11.92;53.92;98576.97;4990596;28;19936;-84
2023/04/12 03:49:47;;;;;;;;;;;;;;;11.96;53.84;98575.94;4981589;28;19918;-87
2023/04/12 03:52:13;;;;;;;;;;;;;;;11.99;53.76;98577.63;4982115;28;20342;-88
2023/04/12 03:54:38;;;;;;;;;;;;;;;12.11;53.66;98574.50;4978546;28;20363;-89
2023/04/12 03:57:03;;;;;;;;;;;;;;;12.00;53.64;98576.66;4988690;28;19972;-85
2023/04/12 03:59:29;;;;;;;;;;;;;;;12.11;53.46;98579.78;4982336;28;19922;-90
2023/04/12 04:01:55;;;;;;;;;;;;;;;12.18;53.02;98568.03;4973719;28;19977;-89
2023/04/12 04:04:21;;;;;;;;;;;;;;;12.05;53.04;98576.50;4977785;28;19918;-90
2023/04/12 04:06:47;;;;;;;;;;;;;;;12.16;52.79;98583.09;4989580;28;19917;-87
2023/04/12 04:09:12;;;;;;;;;;;;;;;12.08;53.44;98579.91;4987186;28;20020;-91
2023/04/12 04:11:38;;;;;;;;;;;;;;;12.23;52.81;98580.22;4981524;28;20498;-95
2023/04/12 04:14:03;;;;;;;;;;;;;;;12.06;53.34;98586.16;4974750;28;19918;-89
2023/04/12 04:16:29;;;;;;;;;;;;;;;12.12;53.44;98586.75;4983968;28;20028;-89
2023/04/12 04:18:55;;;;;;;;;;;;;;;12.12;53.26;98586.75;4988033;28;20388;-85
2023/04/12 04:21:21;;;;;;;;;;;;;;;12.06;53.82;98591.44;4991984;28;19993;-84
2023/04/12 04:23:46;;;;;;;;;;;;;;;12.18;53.70;98593.59;4989272;28;19925;-89
2023/04/12 04:26:12;;;;;;;;;;;;;;;12.03;54.48;98588.91;4982569;28;20005;-87
2023/04/12 04:28:43;;;;;;;;;;;;;;;11.75;54.90;98588.13;4990923;28;19918;-83
2023/04/12 04:31:09;;;;;;;;;;;;;;;11.85;54.92;98588.69;4992342;28;19928;-83
2023/04/12 04:33:35;;;;;;;;;;;;;;;11.89;55.46;98597.34;4992795;28;19917;-83
2023/04/12 04:36:02;;;;;;;;;;;;;;;11.90;55.41;98601.72;4993787;28;20379;-84
2023/04/12 04:38:28;;;;;;;;;;;;;;;11.86;55.13;98600.94;4992595;28;19918;-82
2023/04/12 04:40:54;;;;;;;;;;;;;;;12.05;55.22;98605.56;4992808;28;19929;-84
2023/04/12 04:43:19;;;;;;;;;;;;;;;12.05;55.22;98610.84;4991794;28;19921;-84
2023/04/12 04:45:47;;;;;;;;;;;;;;;12.04;55.20;98607.34;4993327;28;19961;-85
2023/04/12 04:48:12;;;;;;;;;;;;;;;12.16;55.01;98611.31;4991688;28;20004;-86
2023/04/12 04:50:38;;;;;;;;;;;;;;;12.15;54.56;98607.78;4993317;28;20013;-83
2023/04/12 04:53:03;;;;;;;;;;;;;;;12.24;55.06;98605.75;4993275;28;19922;-83
2023/04/12 04:55:29;;;;;;;;;;;;;;;12.30;54.69;98594.91;4991521;28;20399;-83
2023/04/12 04:57:56;;;;;;;;;;;;;;;12.38;54.09;98606.03;4992019;28;20008;-85
2023/04/12 05:00:23;;;;;;;;;;;;;;;12.22;55.10;98608.44;4978039;28;20008;-84
2023/04/12 05:02:49;;;;;;;;;;;;;;;12.36;54.55;98594.69;4973188;28;20020;-85
2023/04/12 05:05:21;;;;;;;;;;;;;;;12.43;54.49;98600.56;4971200;28;20004;-85
2023/04/12 05:07:47;;;;;;;;;;;;;;;12.37;54.51;98601.66;4978987;28;20454;-83
2023/04/12 05:10:12;;;;;;;;;;;;;;;12.45;54.85;98604.00;4977993;28;20065;-85
2023/04/12 05:12:37;;;;;;;;;;;;;;;12.44;54.56;98595.22;4975138;28;20313;-84
2023/04/12 05:15:03;;;;;;;;;;;;;;;12.51;54.56;98596.72;4986590;28;20323;-84
2023/04/12 05:17:28;;;;;;;;;;;;;;;12.67;54.35;98591.66;4976711;28;19917;-83
2023/04/12 05:19:54;;;;;;;;;;;;;;;12.75;54.34;98595.78;4988902;28;19934;-83
2023/04/12 05:22:20;;;;;;;;;;;;;;;12.77;53.95;98597.41;4988518;28;19921;-82
2023/04/12 05:24:49;;;;;;;;;;;;;;;12.87;53.25;98596.09;4987731;28;19918;-81
2023/04/12 05:27:17;;;;;;;;;;;;;;;12.80;54.30;98593.78;4992411;28;19932;-86
2023/04/12 05:29:43;;;;;;;;;;;;;;;12.93;54.38;98599.41;4986485;28;19980;-83
2023/04/12 05:32:08;;;;;;;;;;;;;;;12.96;53.61;98604.56;4976783;28;20304;-83
2023/04/12 05:34:33;;;;;;;;;;;;;;;13.06;53.77;98597.97;4978736;28;20410;-86
2023/04/12 05:36:59;;;;;;;;;;;;;;;13.45;53.02;98594.56;4978277;28;19968;-83
2023/04/12 05:39:26;;;;;;;;;;;;;;;13.68;52.74;98613.88;4978028;28;19922;-84
2023/04/12 05:41:51;;;;;;;;;;;;;;;13.45;52.85;98604.28;4979207;28;19914;-84
2023/04/12 05:44:16;;;;;;;;;;;;;;;13.74;52.72;98608.28;4976806;28;19917;-83
2023/04/12 05:46:42;;;;;;;;;;;;;;;13.89;52.42;98597.00;4980394;28;19914;-83
2023/04/12 05:49:07;;;;;;;;;;;;;;;13.95;52.60;98599.38;4975293;28;19985;-84
2023/04/12 05:51:32;;;;;;;;;;;;;;;13.75;53.21;98602.06;4981351;28;19918;-85
2023/04/12 05:53:58;;;;;;;;;;;;;;;13.59;54.06;98600.13;4975388;28;20375;-85
2023/04/12 05:56:23;;;;;;;;;;;;;;;13.82;53.99;98595.53;4980750;28;20366;-84
2023/04/12 05:58:48;;;;;;;;;;;;;;;13.92;52.73;98602.16;4975214;28;19918;-82
2023/04/12 06:01:15;;;;;;;;;;;;;;;13.92;53.38;98596.00;4981953;28;19921;-84
2023/04/12 06:03:42;;;;;;;;;;;;;;;14.04;53.46;98605.16;4957767;28;20349;-85
2023/04/12 06:06:07;;;;;;;;;;;;;;;14.31;52.97;98616.28;4981120;28;19921;-83
2023/04/12 06:08:33;;;;;;;;;;;;;;;14.12;52.87;98600.38;4972806;28;20524;-85
2023/04/12 06:10:58;;;;;;;;;;;;;;;14.24;53.34;98609.53;4981139;28;20011;-83
2023/04/12 06:13:23;;;;;;;;;;;;;;;14.34;52.37;98608.19;4989050;28;20411;-85
2023/04/12 06:15:49;;;;;;;;;;;;;;;14.18;52.73;98613.34;4982155;28;19914;-84
2023/04/12 06:18:14;;;;;;;;;;;;;;;14.03;52.71;98608.75;4953799;28;19918;-85
2023/04/12 06:20:40;;;;;;;;;;;;;;;14.11;52.85;98612.75;4972207;28;20000;-84
2023/04/12 06:23:05;;;;;;;;;;;;;;;14.26;52.71;98613.84;4972105;28;19945;-84
2023/04/12 06:25:32;;;;;;;;;;;;;;;14.26;53.03;98624.44;4972599;28;20282;-84
2023/04/12 06:27:57;;;;;;;;;;;;;;;14.32;52.91;98628.63;4972480;28;19914;-83
2023/04/12 06:30:22;;;;;;;;;;;;;;;14.15;53.07;98611.69;4971657;28;19918;-84
2023/04/12 06:32:48;;;;;;;;;;;;;;;14.15;53.03;98619.66;4972267;28;19914;-84
2023/04/12 06:35:13;;;;;;;;;;;;;;;14.16;53.36;98601.94;4972062;28;19918;-84
2023/04/12 06:37:38;;;;;;;;;;;;;;;14.23;53.69;98607.84;4972293;28;19953;-84
2023/04/12 06:40:04;;;;;;;;;;;;;;;14.25;52.84;98608.59;4972036;28;19964;-83
2023/04/12 06:42:30;;;;;;;;;;;;;;;14.28;53.09;98604.00;4972605;28;19949;-83
2023/04/12 06:44:55;;;;;;;;;;;;;;;14.23;53.25;98610.47;4972065;28;19914;-83
2023/04/12 06:47:21;;;;;;;;;;;;;;;14.32;52.75;98608.25;4971814;28;19988;-83
2023/04/12 06:49:46;;;;;;;;;;;;;;;14.42;52.24;98610.47;4972479;28;19914;-86
2023/04/12 06:52:12;;;;;;;;;;;;;;;14.49;51.82;98614.53;4954416;28;20367;-84
2023/04/12 06:54:37;;;;;;;;;;;;;;;14.39;52.37;98635.34;4972015;28;19910;-83
2023/04/12 06:57:07;;;;;;;;;;;;;;;14.44;52.25;98620.06;4971706;28;20319;-83
2023/04/12 06:59:32;;;;;;;;;;;;;;;14.52;51.86;98622.38;4972593;28;19932;-83
2023/04/12 07:01:57;;;;;;;;;;;;;;;14.65;52.74;98625.31;4971966;28;19914;-82
2023/04/12 07:04:25;;;;;;;;;;;;;;;14.38;52.76;98625.69;4971722;28;19933;-82
2023/04/12 07:06:50;;;;;;;;;;;;;;;14.29;50.40;98629.63;4971727;28;19914;-82
2023/04/12 07:09:15;;;;;;;;;;;;;;;14.27;51.05;98636.78;4972213;28;20287;-83
2023/04/12 07:11:41;;;;;;;;;;;;;;;14.38;49.78;98632.75;4954046;28;20398;-83
2023/04/12 07:14:06;;;;;;;;;;;;;;;14.44;50.48;98643.06;4972067;28;19972;-82
2023/04/12 07:16:31;;;;;;;;;;;;;;;14.62;50.49;98641.38;4971708;28;19922;-82
2023/04/12 07:18:57;;;;;;;;;;;;;;;14.71;48.96;98643.59;4971627;28;19914;-83
2023/04/12 07:21:23;;;;;;;;;;;;;;;14.56;49.13;98636.34;4970457;28;19910;-82
2023/04/12 07:23:50;;;;;;;;;;;;;;;14.53;47.65;98652.41;4971579;28;20376;-83
2023/04/12 07:26:15;;;;;;;;;;;;;;;14.59;47.74;98644.16;4971673;28;19952;-83
2023/04/12 07:28:41;;;;;;;;;;;;;;;14.40;44.53;98637.06;4971674;28;19957;-85
2023/04/12 07:31:06;;;;;;;;;;;;;;;14.51;45.16;98641.84;4971729;28;19914;-84
2023/04/12 07:33:33;;;;;;;;;;;;;;;14.71;45.39;98637.44;4971806;28;20000;-84
2023/04/12 07:35:59;;;;;;;;;;;;;;;14.86;44.90;98626.06;4971856;28;19964;-83
2023/04/12 07:38:24;;;;;;;;;;;;;;;15.08;44.80;98630.28;4953689;28;19918;-84
2023/04/12 07:40:50;;;;;;;;;;;;;;;15.04;41.88;98629.56;4972098;28;19969;-85
2023/04/12 07:43:15;;;;;;;;;;;;;;;15.19;40.58;98631.44;4957939;28;20335;-83
2023/04/12 07:45:40;;;;;;;;;;;;;;;15.60;40.53;98627.63;4975204;28;19925;-83
2023/04/12 07:48:07;;;;;;;;;;;;;;;15.75;37.36;98628.59;4975619;28;19914;-84
2023/04/12 07:50:32;;;;;;;;;;;;;;;15.80;36.76;98623.94;4974997;28;19921;-84
2023/04/12 07:53:16;;;;;;;;;;;;;;;16.00;36.20;98633.47;4975596;28;19914;-85
2023/04/12 07:55:41;;;;;;;;;;;;;;;15.87;36.45;98624.44;4974781;28;19914;-85
2023/04/12 07:58:06;;;;;;;;;;;;;;;16.07;37.19;98623.38;4975399;28;19937;-84
2023/04/12 08:00:33;;;;;;;;;;;;;;;16.18;36.34;98613.00;4974972;28;19913;-84
2023/04/12 08:02:58;;;;;;;;;;;;;;;16.33;36.50;98605.09;4974782;28;19937;-83
2023/04/12 08:05:24;;;;;;;;;;;;;;;16.88;37.03;98607.31;4974768;28;20375;-84
2023/04/12 08:07:49;;;;;;;;;;;;;;;16.60;35.33;98598.22;4975001;28;20327;-85
2023/04/12 08:10:15;;;;;;;;;;;;;;;16.59;35.46;98591.19;4957068;28;20258;-84
2023/04/12 08:12:40;;;;;;;;;;;;;;;16.67;35.80;98596.06;4975164;28;19920;-84
2023/04/12 08:15:06;;;;;;;;;;;;;;;16.91;35.61;98593.81;4975071;28;19921;-84
2023/04/12 08:17:31;;;;;;;;;;;;;;;16.92;34.44;98592.03;4974554;28;19965;-85
2023/04/12 08:19:56;;;;;;;;;;;;;;;17.27;36.01;98599.72;4974870;28;19914;-85
2023/04/12 08:22:22;;;;;;;;;;;;;;;17.42;36.09;98585.47;4974513;28;19956;-84
2023/04/12 08:24:47;;;;;;;;;;;;;;;17.57;35.70;98577.50;4974782;28;19944;-84
2023/04/12 08:27:12;;;;;;;;;;;;;;;16.80;37.30;98566.91;4974162;28;19941;-86
2023/04/12 08:29:38;;;;;;;;;;;;;;;16.95;40.31;98562.53;4974484;28;19921;-84
2023/04/12 08:32:04;;;;;;;;;;;;;;;16.93;37.44;98570.63;4987560;28;20406;-86
2023/04/12 08:34:29;;;;;;;;;;;;;;;16.90;37.91;98562.81;4994171;28;20004;-85
2023/04/12 08:36:58;;;;;;;;;;;;;;;17.08;39.68;98560.00;4976367;28;20383;-88
2023/04/12 08:39:23;;;;;;;;;;;;;;;17.28;37.96;98572.13;4974967;28;19988;-84
2023/04/12 08:41:49;;;;;;;;;;;;;;;17.44;37.10;98570.25;4974566;28;20391;-88
2023/04/12 08:44:15;;;;;;;;;;;;;;;17.21;36.10;98558.31;4981344;28;20280;-87
2023/04/12 08:46:41;;;;;;;;;;;;;;;16.80;37.53;98550.94;4992955;28;19914;-86
2023/04/12 08:49:06;;;;;;;;;;;;;;;16.67;37.57;98549.94;4990541;28;19921;-85
2023/04/12 08:51:32;;;;;;;;;;;;;;;16.47;37.48;98549.31;4973202;28;20397;-85
2023/04/12 08:53:58;;;;;;;;;;;;;;;16.59;38.43;98553.91;4972377;28;20446;-86
2023/04/12 08:56:23;;;;;;;;;;;;;;;16.51;37.96;98558.81;4973683;28;19946;-84
2023/04/12 08:58:50;;;;;;;;;;;;;;;16.47;37.92;98551.97;4972626;28;20044;-86
2023/04/12 09:01:16;;;;;;;;;;;;;;;16.70;38.58;98565.72;4985670;28;19972;-85
2023/04/12 09:03:42;;;;;;;;;;;;;;;16.82;37.65;98563.22;4992581;28;20382;-84
2023/04/12 09:06:07;;;;;;;;;;;;;;;16.91;37.20;98566.31;4992023;28;19914;-85
2023/04/12 09:08:33;;;;;;;;;;;;;;;16.68;37.59;98560.50;4992997;28;20409;-85
2023/04/12 09:10:58;;;;;;;;;;;;;;;16.50;38.21;98575.75;4983961;28;19956;-86
2023/04/12 09:13:30;;;;;;;;;;;;;;;16.16;38.85;98587.41;4985820;28;19972;-85
2023/04/12 09:15:56;;;;;;;;;;;;;;;16.16;40.09;98577.66;4989016;28;19944;-87
2023/04/12 09:18:22;;;;;;;;;;;;;;;16.59;41.40;98569.00;4991563;28;19960;-86
2023/04/12 09:20:47;;;;;;;;;;;;;;;16.64;39.18;98554.50;4992546;28;19917;-84
2023/04/12 09:23:16;;;;;;;;;;;;;;;16.80;39.50;98562.44;4974283;28;19924;-87
2023/04/12 09:25:44;;;;;;;;;;;;;;;17.00;39.20;98561.28;4982690;28;19984;-83
2023/04/12 09:28:20;;;;;;;;;;;;;;;16.79;39.67;98549.22;4992203;28;19914;-84
2023/04/12 09:30:50;;;;;;;;;;;;;;;17.19;38.11;98533.56;4991215;28;19910;-86
2023/04/12 09:33:16;;;;;;;;;;;;;;;16.73;38.73;98549.56;4988775;28;19960;-86
2023/04/12 09:35:41;;;;;;;;;;;;;;;17.00;39.02;98550.63;4974674;28;19949;-86
2023/04/12 09:38:07;;;;;;;;;;;;;;;17.52;39.33;98553.78;4986851;28;19921;-86
2023/04/12 09:40:35;;;;;;;;;;;;;;;16.85;38.86;98545.34;4984981;28;20132;-85
2023/04/12 09:43:01;;;;;;;;;;;;;;;16.47;39.60;98543.97;4988728;28;20315;-85
2023/04/12 09:45:27;;;;;;;;;;;;;;;16.32;39.87;98556.34;4983535;28;20287;-89
2023/04/12 09:47:53;;;;;;;;;;;;;;;16.77;41.14;98546.63;4991718;28;19914;-85
2023/04/12 09:50:22;;;;;;;;;;;;;;;16.90;38.01;98538.84;4990967;28;19921;-87
2023/04/12 09:52:48;;;;;;;;;;;;;;;17.22;37.94;98530.69;4991205;28;19914;-85
2023/04/12 09:55:14;;;;;;;;;;;;;;;17.29;35.88;98523.22;4990810;28;19918;-86
2023/04/12 09:57:40;;;;;;;;;;;;;;;17.42;37.82;98532.16;4991687;28;19920;-86
2023/04/12 10:00:16;;;;;;;;;;;;;;;17.66;37.07;98512.94;4991823;28;20015;-86
2023/04/12 10:02:42;;;;;;;;;;;;;;;17.10;35.65;98523.44;4991609;28;19913;-88
2023/04/12 10:05:11;;;;;;;;;;;;;;;17.16;36.46;98521.28;4990938;28;19948;-87
2023/04/12 10:07:38;;;;;;;;;;;;;;;17.39;36.54;98516.34;4990759;28;19917;-86
2023/04/12 10:10:04;;;;;;;;;;;;;;;17.43;34.21;98523.22;4971723;28;19918;-86
2023/04/12 10:12:30;;;;;;;;;;;;;;;17.32;35.35;98521.19;4972156;28;19917;-85
2023/04/12 10:14:55;;;;;;;;;;;;;;;17.37;34.68;98518.25;4972330;28;19914;-85
2023/04/12 10:17:21;;;;;;;;;;;;;;;17.02;35.41;98502.59;4971367;28;19925;-89
2023/04/12 10:19:47;;;;;;;;;;;;;;;17.42;34.16;98500.16;4972371;28;19922;-87
2023/04/12 10:22:14;;;;;;;;;;;;;;;17.82;34.27;98484.31;4972124;28;19933;-87
2023/04/12 10:24:39;;;;;;;;;;;;;;;18.18;34.17;98488.28;4972066;28;19972;-88
2023/04/12 10:27:05;;;;;;;;;;;;;;;18.48;33.56;98494.38;4972173;28;20762;-88
2023/04/12 10:29:32;;;;;;;;;;;;;;;18.42;30.85;98477.78;4972111;28;19914;-89
2023/04/12 10:32:17;;;;;;;;;;;;;;;18.70;32.84;98491.09;4987303;28;19914;-90
2023/04/12 10:34:42;;;;;;;;;;;;;;;18.71;31.07;98488.31;4972239;28;20008;-88
2023/04/12 10:37:08;;;;;;;;;;;;;;;18.56;31.21;98476.84;4972482;28;20012;-90
2023/04/12 10:39:36;;;;;;;;;;;;;;;18.22;30.78;98488.91;4972342;28;20298;-87
2023/04/12 10:42:23;;;;;;;;;;;;;;;18.33;30.78;98486.38;4972038;28;19914;-88
2023/04/12 10:44:56;;;;;;;;;;;;;;;19.04;31.55;98462.94;4970614;28;20024;-91
2023/04/12 10:47:51;;;;;;;;;;;;;;;19.22;31.46;98482.22;4971519;28;19914;-89
2023/04/12 10:50:20;;;;;;;;;;;;;;;18.95;29.20;98485.84;4959329;28;19988;-89
2023/04/12 10:53:06;;;;;;;;;;;;;;;18.74;30.68;98489.94;4971853;28;19914;-87
2023/04/12 10:55:32;;;;;;;;;;;;;;;18.56;29.53;98474.19;4911846;29;20001;-87
2023/04/12 10:57:57;;;;;;;;;;;;;;;18.49;30.69;98467.56;4912336;29;20010;-94
2023/04/12 11:00:22;;;;;;;;;;;;;;;18.25;30.36;98462.03;4912503;29;19929;-87
2023/04/12 11:03:10;;;;;;;;;;;;;;;18.16;29.14;98462.63;4913066;29;19997;-88
2023/04/12 11:05:54;;;;;;;;;;;;;;;18.24;31.16;98454.97;4914986;29;20377;-87
2023/04/12 11:08:19;;;;;;;;;;;;;;;18.04;29.65;98480.28;4915534;29;19915;-86
2023/04/12 11:10:45;;;;;;;;;;;;;;;17.60;30.78;98478.66;4915649;29;20261;-87
2023/04/12 11:13:10;;;;;;;;;;;;;;;17.86;29.81;98461.00;4912655;29;19923;-86
2023/04/12 11:15:38;;;;;;;;;;;;;;;17.67;29.96;98488.84;4922009;29;19989;-84
2023/04/12 11:18:05;;;;;;;;;;;;;;;17.27;30.50;98488.66;4931803;29;19931;-88
2023/04/12 11:20:32;;;;;;;;;;;;;;;17.06;31.38;98497.97;4923698;29;19922;-85
2023/04/12 11:22:57;;;;;;;;;;;;;;;16.98;33.61;98501.09;4915681;29;20404;-88
2023/04/12 11:25:23;;;;;;;;;;;;;;;17.20;33.41;98489.13;4923359;29;19986;-86
2023/04/12 11:27:52;;;;;;;;;;;;;;;17.76;33.28;98483.84;4934012;29;19997;-86
2023/04/12 11:30:18;;;;;;;;;;;;;;;17.46;30.85;98474.19;4926647;29;20444;-85
2023/04/12 11:32:44;;;;;;;;;;;;;;;17.58;32.19;98478.75;4948045;28;19920;-86
2023/04/12 11:35:10;;;;;;;;;;;;;;;17.91;30.12;98490.91;4981317;28;20008;-85
2023/04/12 11:37:35;;;;;;;;;;;;;;;18.51;29.14;98497.66;4994980;28;19917;-85
2023/04/12 11:40:04;;;;;;;;;;;;;;;18.22;29.28;98496.94;4994283;28;19910;-87
2023/04/12 11:42:29;;;;;;;;;;;;;;;18.37;30.57;98503.94;4994397;28;20334;-86
2023/04/12 11:44:55;;;;;;;;;;;;;;;18.73;29.78;98493.56;4994401;28;19959;-86
2023/04/12 11:47:22;;;;;;;;;;;;;;;18.47;29.76;98500.66;4994022;28;19921;-86
2023/04/12 11:49:51;;;;;;;;;;;;;;;18.64;32.07;98500.38;4988260;28;20008;-85
2023/04/12 11:52:17;;;;;;;;;;;;;;;18.68;30.11;98485.84;4994573;28;19921;-85
2023/04/12 11:54:47;;;;;;;;;;;;;;;18.56;29.81;98482.19;4994034;28;19921;-87
2023/04/12 11:57:13;;;;;;;;;;;;;;;18.98;29.82;98474.06;4994277;28;19936;-85
2023/04/12 11:59:39;;;;;;;;;;;;;;;19.27;31.13;98471.19;4994202;28;19913;-85
2023/04/12 12:02:06;;;;;;;;;;;;;;;19.44;28.65;98470.00;4994408;28;20208;-86
2023/04/12 12:04:31;;;;;;;;;;;;;;;19.04;29.68;98470.97;4987353;28;19921;-87
2023/04/12 12:06:57;;;;;;;;;;;;;;;19.01;29.25;98460.50;4977465;28;19914;-85
2023/04/12 12:09:23;;;;;;;;;;;;;;;19.01;28.78;98460.50;4974492;28;20397;-86
2023/04/12 12:11:50;;;;;;;;;;;;;;;19.20;30.18;98472.56;4974705;28;19918;-84
2023/04/12 12:14:22;;;;;;;;;;;;;;;19.12;28.27;98462.41;4974834;28;19960;-84
2023/04/12 12:17:10;;;;;;;;;;;;;;;19.05;29.20;98486.06;4967590;28;20383;-85
2023/04/12 12:19:36;;;;;;;;;;;;;;;19.30;29.28;98487.84;4934024;29;20399;-85
2023/04/12 12:22:12;;;;;;;;;;;;;;;19.30;30.70;98471.81;4947626;29;19965;-85
2023/04/12 12:24:57;;;;;;;;;;;;;;;19.35;29.64;98476.00;4933489;29;20428;-85
2023/04/12 12:27:24;;;;;;;;;;;;;;;19.10;28.02;98470.53;4932772;29;19915;-84
2023/04/12 12:29:53;;;;;;;;;;;;;;;19.30;29.40;98479.84;4932744;29;19915;-84
2023/04/12 12:32:22;;;;;;;;;;;;;;;19.50;27.86;98473.09;4935979;29;20392;-84
2023/04/12 12:34:53;;;;;;;;;;;;;;;19.35;26.68;98473.31;4939418;29;20033;-85
2023/04/12 12:37:19;;;;;;;;;;;;;;;19.01;26.67;98467.66;4948830;29;19918;-84
2023/04/12 12:39:59;;;;;;;;;;;;;;;19.26;27.43;98462.31;4938945;29;19974;-85
2023/04/12 12:42:25;;;;;;;;;;;;;;;19.29;25.60;98455.88;4933241;29;20063;-82
2023/04/12 12:44:51;;;;;;;;;;;;;;;19.33;26.32;98466.25;4932576;29;19915;-86
2023/04/12 12:47:16;;;;;;;;;;;;;;;19.35;26.59;98442.09;4932727;29;19914;-84